createdAt,value
2018-11-01T00:01:52.924Z,100772.81
2018-11-01T00:04:26.917Z,100764.63
2018-11-01T00:07:00.906Z,100765.95
2018-11-01T00:09:34.864Z,100762.87
2018-11-01T00:12:08.769Z,100760.27
2018-11-01T00:14:42.646Z,100757.50
2018-11-01T00:17:16.539Z,100753.27
2018-11-01T00:19:50.502Z,100752.05
2018-11-01T00:22:24.373Z,100754.45
2018-11-01T00:24:58.302Z,100742.04
2018-11-01T00:27:32.250Z,100743.36
2018-11-01T00:30:06.597Z,100744.16
2018-11-01T00:32:40.691Z,100751.81
2018-11-01T00:35:14.653Z,100754.72
2018-11-01T00:37:48.607Z,100753.58
2018-11-01T00:40:22.573Z,100757.84
2018-11-01T00:42:56.388Z,100759.61
2018-11-01T00:45:30.293Z,100754.73
2018-11-01T00:48:04.216Z,100757.23
2018-11-01T00:50:38.152Z,100756.39
2018-11-01T00:53:12.084Z,100761.02
2018-11-01T00:55:45.971Z,100755.33
2018-11-01T00:58:19.824Z,100756.33
2018-11-01T01:00:53.696Z,100750.87
2018-11-01T01:03:27.532Z,100741.86
2018-11-01T01:06:01.557Z,100744.41
2018-11-01T01:08:35.437Z,100734.81
2018-11-01T01:11:09.291Z,100731.17
2018-11-01T01:13:44.108Z,100727.82
2018-11-01T01:16:18.061Z,100727.86
2018-11-01T01:18:51.929Z,100736.75
2018-11-01T01:21:25.916Z,100739.38
2018-11-01T01:23:59.893Z,100730.84
2018-11-01T01:26:33.824Z,100733.55
2018-11-01T01:29:07.685Z,100741.20
2018-11-01T01:31:41.701Z,100738.34
2018-11-01T01:34:15.602Z,100736.70
2018-11-01T01:36:50.510Z,100747.41
2018-11-01T01:39:24.334Z,100740.23
2018-11-01T01:41:58.191Z,100744.42
2018-11-01T01:44:32.022Z,100744.02
2018-11-01T01:47:05.941Z,100747.44
2018-11-01T01:49:39.823Z,100749.17
2018-11-01T01:52:13.692Z,100744.58
2018-11-01T01:54:47.558Z,100746.32
2018-11-01T01:57:21.415Z,100743.84
2018-11-01T01:59:55.341Z,100742.13
2018-11-01T02:02:29.225Z,100734.05
2018-11-01T02:05:03.114Z,100737.52
2018-11-01T02:07:37.028Z,100731.59
2018-11-01T02:10:13.215Z,100730.34
2018-11-01T02:12:47.092Z,100723.17
2018-11-01T02:15:21.732Z,100722.39
2018-11-01T02:17:55.599Z,100716.44
2018-11-01T02:20:29.476Z,100717.27
2018-11-01T02:23:03.348Z,100716.09
2018-11-01T02:25:37.327Z,100719.09
2018-11-01T02:28:16.683Z,100718.72
2018-11-01T02:30:50.636Z,100710.23
2018-11-01T02:33:24.686Z,100712.48
2018-11-01T02:35:58.535Z,100713.00
2018-11-01T02:38:32.460Z,100705.85
2018-11-01T02:41:06.330Z,100705.44
2018-11-01T02:43:40.326Z,100705.47
2018-11-01T02:46:14.227Z,100700.78
2018-11-01T02:48:48.070Z,100695.67
2018-11-01T02:51:21.976Z,100694.93
2018-11-01T02:53:55.829Z,100694.06
2018-11-01T02:56:29.657Z,100696.59
2018-11-01T02:59:03.529Z,100696.97
2018-11-01T03:01:37.365Z,100697.38
2018-11-01T03:04:11.396Z,100691.04
2018-11-01T03:06:45.314Z,100694.86
2018-11-01T03:09:19.252Z,100694.42
2018-11-01T03:11:53.160Z,100696.08
2018-11-01T03:14:27.010Z,100690.93
2018-11-01T03:17:00.901Z,100695.20
2018-11-01T03:19:35.324Z,100693.09
2018-11-01T03:22:09.199Z,100691.44
2018-11-01T03:24:43.064Z,100687.66
2018-11-01T03:27:16.861Z,100675.36
2018-11-01T03:29:50.741Z,100677.55
2018-11-01T03:32:24.576Z,100681.34
2018-11-01T03:34:58.513Z,100673.70
2018-11-01T03:37:32.342Z,100668.20
2018-11-01T03:40:07.591Z,100663.57
2018-11-01T03:42:42.167Z,100660.72
2018-11-01T03:45:16.110Z,100651.51
2018-11-01T03:47:49.936Z,100654.41
2018-11-01T03:50:24.038Z,100653.92
2018-11-01T03:52:57.886Z,100643.75
2018-11-01T03:55:31.751Z,100638.69
2018-11-01T03:58:05.632Z,100633.65
2018-11-01T04:00:39.742Z,100640.47
2018-11-01T04:03:13.561Z,100629.91
2018-11-01T04:05:47.452Z,100627.02
2018-11-01T04:08:21.288Z,100627.03
2018-11-01T04:10:55.267Z,100619.10
2018-11-01T04:13:29.140Z,100620.39
2018-11-01T04:16:02.967Z,100614.86
2018-11-01T04:18:36.759Z,100609.45
2018-11-01T04:21:10.660Z,100606.05
2018-11-01T04:23:44.566Z,100608.98
2018-11-01T04:26:18.511Z,100608.14
2018-11-01T04:28:52.335Z,100605.98
2018-11-01T04:31:26.244Z,100607.25
2018-11-01T04:34:00.093Z,100603.00
2018-11-01T04:36:34.020Z,100608.52
2018-11-01T04:39:10.425Z,100604.27
2018-11-01T04:41:44.295Z,100604.73
2018-11-01T04:44:18.240Z,100604.33
2018-11-01T04:46:52.157Z,100605.23
2018-11-01T04:49:25.972Z,100607.34
2018-11-01T04:51:59.906Z,100606.97
2018-11-01T04:54:33.713Z,100601.02
2018-11-01T04:57:07.603Z,100605.25
2018-11-01T04:59:41.400Z,100606.05
2018-11-01T05:02:15.285Z,100597.98
2018-11-01T05:04:49.154Z,100593.34
2018-11-01T05:07:23.001Z,100589.97
2018-11-01T05:09:56.867Z,100587.06
2018-11-01T05:12:30.839Z,100580.77
2018-11-01T05:15:04.824Z,100579.18
2018-11-01T05:17:39.046Z,100568.20
2018-11-01T05:20:13.376Z,100578.75
2018-11-01T05:22:47.297Z,100577.09
2018-11-01T05:25:21.115Z,100581.77
2018-11-01T05:27:54.975Z,100580.08
2018-11-01T05:30:28.797Z,100578.80
2018-11-01T05:33:02.834Z,100577.53
2018-11-01T05:35:36.662Z,100575.44
2018-11-01T05:38:10.533Z,100575.07
2018-11-01T05:40:44.349Z,100566.18
2018-11-01T05:43:23.419Z,100556.87
2018-11-01T05:45:57.947Z,100555.59
2018-11-01T05:48:31.801Z,100553.03
2018-11-01T05:51:05.637Z,100556.04
2018-11-01T05:53:39.624Z,100555.19
2018-11-01T05:56:13.442Z,100546.30
2018-11-01T05:58:47.363Z,100547.11
2018-11-01T06:01:26.268Z,100546.70
2018-11-01T06:04:00.338Z,100551.81
2018-11-01T06:06:34.167Z,100556.45
2018-11-01T06:09:10.365Z,100555.64
2018-11-01T06:11:44.262Z,100561.52
2018-11-01T06:14:18.469Z,100555.59
2018-11-01T06:16:52.316Z,100559.45
2018-11-01T06:19:26.181Z,100558.20
2018-11-01T06:22:00.092Z,100557.75
2018-11-01T06:24:33.914Z,100559.43
2018-11-01T06:27:07.782Z,100559.41
2018-11-01T06:29:41.674Z,100556.04
2018-11-01T06:32:15.525Z,100557.75
2018-11-01T06:34:53.886Z,100551.84
2018-11-01T06:37:27.676Z,100545.55
2018-11-01T06:40:01.528Z,100543.45
2018-11-01T06:42:35.343Z,100531.61
2018-11-01T06:45:09.495Z,100525.70
2018-11-01T06:47:43.406Z,100524.36
2018-11-01T06:50:17.247Z,100523.52
2018-11-01T06:52:51.059Z,100532.31
2018-11-01T06:55:24.938Z,100542.03
2018-11-01T06:57:58.749Z,100540.74
2018-11-01T07:00:32.691Z,100537.30
2018-11-01T07:03:06.497Z,100524.63
2018-11-01T07:05:40.430Z,100524.17
2018-11-01T07:08:14.282Z,100514.86
2018-11-01T07:10:48.141Z,100519.94
2018-11-01T07:13:22.053Z,100514.83
2018-11-01T07:15:55.986Z,100508.39
2018-11-01T07:18:29.931Z,100503.29
2018-11-01T07:21:03.798Z,100503.72
2018-11-01T07:23:37.723Z,100509.64
2018-11-01T07:26:11.688Z,100508.76
2018-11-01T07:28:45.399Z,100504.41
2018-11-01T07:31:19.231Z,100495.88
2018-11-01T07:33:53.252Z,100503.86
2018-11-01T07:36:27.121Z,100509.33
2018-11-01T07:39:00.965Z,100503.72
2018-11-01T07:41:34.910Z,100494.83
2018-11-01T07:44:08.886Z,100494.74
2018-11-01T07:46:42.698Z,100487.42
2018-11-01T07:49:16.474Z,100481.37
2018-11-01T07:51:50.306Z,100483.39
2018-11-01T07:54:24.115Z,100479.04
2018-11-01T07:56:58.081Z,100475.19
2018-11-01T07:59:31.931Z,100468.39
2018-11-01T08:02:06.151Z,100473.00
2018-11-01T08:04:40.052Z,100473.95
2018-11-01T08:07:14.235Z,100469.62
2018-11-01T08:09:48.031Z,100472.50
2018-11-01T08:12:21.881Z,100466.94
2018-11-01T08:14:55.716Z,100475.30
2018-11-01T08:17:29.644Z,100476.82
2018-11-01T08:20:04.539Z,100482.31
2018-11-01T08:22:38.318Z,100482.95
2018-11-01T08:25:12.862Z,100489.75
2018-11-01T08:27:46.758Z,100482.11
2018-11-01T08:30:20.696Z,100481.15
2018-11-01T08:32:54.519Z,100460.86
2018-11-01T08:35:28.373Z,100462.94
2018-11-01T08:38:02.324Z,100454.71
2018-11-01T08:40:36.191Z,100448.91
2018-11-01T08:43:10.059Z,100444.03
2018-11-01T08:45:43.921Z,100452.33
2018-11-01T08:48:17.793Z,100449.17
2018-11-01T08:51:54.976Z,100452.75
2018-11-01T08:54:28.814Z,100453.47
2018-11-01T08:57:02.661Z,100450.69
2018-11-01T08:59:36.537Z,100450.80
2018-11-01T09:02:10.557Z,100450.22
2018-11-01T09:04:44.387Z,100458.55
2018-11-01T09:07:18.243Z,100449.55
2018-11-01T09:09:52.126Z,100449.77
2018-11-01T09:12:25.945Z,100435.66
2018-11-01T09:14:59.828Z,100433.81
2018-11-01T09:17:33.634Z,100433.81
2018-11-01T09:20:08.388Z,100437.83
2018-11-01T09:22:43.107Z,100431.91
2018-11-01T09:25:16.981Z,100425.89
2018-11-01T09:27:50.864Z,100420.08
2018-11-01T09:30:24.804Z,100414.41
2018-11-01T09:32:58.743Z,100412.03
2018-11-01T09:35:32.550Z,100411.84
2018-11-01T09:38:06.567Z,100414.88
2018-11-01T09:40:40.457Z,100424.09
2018-11-01T09:43:14.285Z,100421.27
2018-11-01T09:45:48.173Z,100419.63
2018-11-01T09:48:22.060Z,100417.00
2018-11-01T09:50:55.914Z,100411.81
2018-11-01T09:53:29.749Z,100409.48
2018-11-01T09:56:03.676Z,100392.70
2018-11-01T09:58:38.016Z,100390.92
2018-11-01T10:01:12.093Z,100387.21
2018-11-01T10:03:45.807Z,100389.49
2018-11-01T10:06:19.868Z,100379.62
2018-11-01T10:08:53.700Z,100378.92
2018-11-01T10:11:27.564Z,100388.03
2018-11-01T10:14:01.364Z,100389.46
2018-11-01T10:16:35.654Z,100387.47
2018-11-01T10:19:10.340Z,100388.27
2018-11-01T10:21:44.184Z,100383.46
2018-11-01T10:24:18.095Z,100389.17
2018-11-01T10:26:52.009Z,100380.90
2018-11-01T10:29:25.855Z,100380.39
2018-11-01T10:32:00.060Z,100377.88
2018-11-01T10:34:33.898Z,100363.06
2018-11-01T10:37:07.772Z,100363.45
2018-11-01T10:39:41.636Z,100349.25
2018-11-01T10:42:15.611Z,100346.95
2018-11-01T10:44:49.503Z,100343.24
2018-11-01T10:47:23.454Z,100340.12
2018-11-01T10:49:57.306Z,100338.03
2018-11-01T10:52:31.239Z,100339.66
2018-11-01T10:55:05.644Z,100334.92
2018-11-01T10:57:39.505Z,100328.70
2018-11-01T11:00:18.836Z,100321.11
2018-11-01T11:02:52.936Z,100322.84
2018-11-01T11:05:26.774Z,100318.87
2018-11-01T11:08:00.752Z,100322.47
2018-11-01T11:10:34.613Z,100315.32
2018-11-01T11:13:08.473Z,100315.84
2018-11-01T11:15:42.327Z,100316.38
2018-11-01T11:18:16.212Z,100319.80
2018-11-01T11:20:50.320Z,100319.08
2018-11-01T11:23:23.959Z,100320.68
2018-11-01T11:25:57.768Z,100313.41
2018-11-01T11:28:31.713Z,100307.63
2018-11-01T11:31:05.591Z,100308.80
2018-11-01T11:33:39.710Z,100301.95
2018-11-01T11:36:13.521Z,100294.20
2018-11-01T11:38:47.450Z,100294.26
2018-11-01T11:41:21.268Z,100287.26
2018-11-01T11:43:55.127Z,100280.62
2018-11-01T11:46:28.951Z,100277.90
2018-11-01T11:49:03.180Z,100275.03
2018-11-01T11:51:37.582Z,100274.16
2018-11-01T11:54:11.535Z,100272.88
2018-11-01T11:56:45.371Z,100260.80
2018-11-01T11:59:19.249Z,100257.81
2018-11-01T12:01:53.087Z,100257.21
2018-11-01T12:04:26.937Z,100249.26
2018-11-01T12:07:00.793Z,100251.88
2018-11-01T12:09:34.633Z,100253.54
2018-11-01T12:12:08.504Z,100258.27
2018-11-01T12:14:42.354Z,100255.93
2018-11-01T12:17:16.433Z,100245.14
2018-11-01T12:19:50.415Z,100242.27
2018-11-01T12:22:24.349Z,100236.84
2018-11-01T12:24:58.199Z,100232.50
2018-11-01T12:27:32.010Z,100229.55
2018-11-01T12:30:06.723Z,100223.28
2018-11-01T12:32:40.560Z,100218.52
2018-11-01T12:35:14.423Z,100210.13
2018-11-01T12:37:48.249Z,100209.39
2018-11-01T12:40:22.083Z,100208.38
2018-11-01T12:42:55.909Z,100202.44
2018-11-01T12:45:29.788Z,100199.30
2018-11-01T12:48:03.620Z,100201.95
2018-11-01T12:50:37.479Z,100208.71
2018-11-01T12:53:11.295Z,100209.42
2018-11-01T12:55:45.147Z,100195.99
2018-11-01T12:58:18.983Z,100191.42
2018-11-01T13:00:52.915Z,100192.23
2018-11-01T13:03:26.829Z,100175.89
2018-11-01T13:06:00.685Z,100177.81
2018-11-01T13:08:34.554Z,100172.72
2018-11-01T13:11:08.412Z,100164.64
2018-11-01T13:13:42.226Z,100175.03
2018-11-01T13:16:16.046Z,100172.42
2018-11-01T13:18:49.911Z,100171.33
2018-11-01T13:21:23.776Z,100163.60
2018-11-01T13:23:57.608Z,100157.56
2018-11-01T13:26:31.454Z,100162.96
2018-11-01T13:29:05.811Z,100156.77
2018-11-01T13:31:39.666Z,100156.70
2018-11-01T13:34:13.533Z,100151.98
2018-11-01T13:36:47.344Z,100163.50
2018-11-01T13:39:21.205Z,100140.92
2018-11-01T13:41:54.994Z,100139.13
2018-11-01T13:44:28.930Z,100153.30
2018-11-01T13:47:02.796Z,100163.78
2018-11-01T13:49:36.646Z,100173.70
2018-11-01T13:52:10.513Z,100157.53
2018-11-01T13:54:44.516Z,100153.53
2018-11-01T13:57:18.660Z,100156.23
2018-11-01T13:59:52.489Z,100148.28
2018-11-01T14:02:26.331Z,100143.27
2018-11-01T14:05:00.304Z,100154.12
2018-11-01T14:07:34.126Z,100148.47
2018-11-01T14:10:10.218Z,100149.49
2018-11-01T14:12:44.158Z,100159.06
2018-11-01T14:15:18.793Z,100159.44
2018-11-01T14:17:52.212Z,100167.51
2018-11-01T14:20:26.243Z,100167.06
2018-11-01T14:23:00.062Z,100180.29
2018-11-01T14:25:33.982Z,100177.61
2018-11-01T14:28:07.799Z,100177.20
2018-11-01T14:30:41.750Z,100181.12
2018-11-01T14:33:15.567Z,100190.69
2018-11-01T14:35:49.553Z,100186.36
2018-11-01T14:38:23.431Z,100171.23
2018-11-01T14:40:57.279Z,100153.74
2018-11-01T14:43:31.114Z,100165.16
2018-11-01T14:46:04.976Z,100160.77
2018-11-01T14:48:38.831Z,100152.73
2018-11-01T14:51:12.765Z,100151.45
2018-11-01T14:53:46.697Z,100148.30
2018-11-01T14:56:22.116Z,100134.08
2018-11-01T14:58:56.208Z,100136.33
2018-11-01T15:01:28.838Z,100143.84
2018-11-01T15:04:02.660Z,100139.33
2018-11-01T15:06:36.610Z,100140.81
2018-11-01T15:09:11.820Z,100143.69
2018-11-01T15:11:45.663Z,100143.99
2018-11-01T15:14:19.508Z,100147.45
2018-11-01T15:16:53.403Z,100140.40
2018-11-01T15:19:27.270Z,100133.38
2018-11-01T15:22:01.689Z,100141.45
2018-11-01T15:24:35.587Z,100147.85
2018-11-01T15:27:09.523Z,100140.03
2018-11-01T15:29:43.394Z,100121.30
2018-11-01T15:32:22.504Z,100121.93
2018-11-01T15:34:56.576Z,100107.15
2018-11-01T15:37:30.572Z,100114.69
2018-11-01T15:40:04.529Z,100112.27
2018-11-01T15:42:38.597Z,100125.59
2018-11-01T15:45:15.149Z,100112.78
2018-11-01T15:47:50.279Z,100114.66
2018-11-01T15:50:25.512Z,100110.08
2018-11-01T15:53:00.632Z,100120.57
2018-11-01T15:55:35.431Z,100107.25
2018-11-01T15:58:10.377Z,100109.81
2018-11-01T16:00:45.495Z,100111.09
2018-11-01T16:03:21.241Z,100109.53
2018-11-01T16:05:57.285Z,100109.43
2018-11-01T16:08:32.323Z,100094.34
2018-11-01T16:11:08.226Z,100083.85
2018-11-01T16:13:43.739Z,100083.09
2018-11-01T16:16:18.897Z,100081.91
2018-11-01T16:18:54.719Z,100088.06
2018-11-01T16:21:30.818Z,100091.31
2018-11-01T16:24:06.505Z,100091.70
2018-11-01T16:26:41.691Z,100091.27
2018-11-01T16:29:16.725Z,100100.12
2018-11-01T16:31:51.975Z,100110.27
2018-11-01T16:34:27.722Z,100109.38
2018-11-01T16:37:03.606Z,100104.97
2018-11-01T16:39:39.708Z,100104.52
2018-11-01T16:42:15.923Z,100111.75
2018-11-01T16:44:52.667Z,100106.34
2018-11-01T16:47:29.286Z,100109.13
2018-11-01T16:50:04.951Z,100107.82
2018-11-01T16:52:41.206Z,100095.92
2018-11-01T16:55:16.415Z,100110.30
2018-11-01T16:57:51.463Z,100112.33
2018-11-01T17:00:27.187Z,100117.44
2018-11-01T17:03:02.620Z,100114.91
2018-11-01T17:05:37.733Z,100117.84
2018-11-01T17:08:12.670Z,100113.27
2018-11-01T17:10:47.856Z,100113.66
2018-11-01T17:13:22.958Z,100117.58
2018-11-01T17:15:58.974Z,100113.61
2018-11-01T17:18:34.500Z,100117.92
2018-11-01T17:21:09.344Z,100106.27
2018-11-01T17:23:44.406Z,100114.17
2018-11-01T17:26:20.455Z,100116.25
2018-11-01T17:28:56.086Z,100123.00
2018-11-01T17:31:31.373Z,100133.67
2018-11-01T17:34:06.905Z,100145.27
2018-11-01T17:36:42.335Z,100150.95
2018-11-01T17:39:17.546Z,100152.58
2018-11-01T17:41:52.902Z,100153.47
2018-11-01T17:44:27.926Z,100142.50
2018-11-01T17:47:03.778Z,100129.09
2018-11-01T17:49:39.833Z,100130.28
2018-11-01T17:52:14.709Z,100137.51
2018-11-01T17:54:49.400Z,100138.16
2018-11-01T17:57:24.741Z,100125.53
2018-11-01T17:59:59.897Z,100132.28
2018-11-01T18:02:34.648Z,100121.70
2018-11-01T18:05:09.184Z,100135.16
2018-11-01T18:07:43.124Z,100141.52
2018-11-01T18:10:17.002Z,100141.14
2018-11-01T18:12:50.848Z,100140.78
2018-11-01T18:15:24.721Z,100145.39
2018-11-01T18:17:59.085Z,100142.89
2018-11-01T18:20:33.141Z,100137.03
2018-11-01T18:23:07.139Z,100136.65
2018-11-01T18:25:46.357Z,100136.20
2018-11-01T18:28:20.872Z,100142.09
2018-11-01T18:30:54.967Z,100149.67
2018-11-01T18:33:28.876Z,100141.76
2018-11-01T18:36:03.068Z,100137.19
2018-11-01T18:38:36.956Z,100140.57
2018-11-01T18:41:10.989Z,100129.63
2018-11-01T18:43:44.870Z,100133.91
2018-11-01T18:46:18.809Z,100141.36
2018-11-01T18:48:52.744Z,100144.20
2018-11-01T18:51:26.859Z,100153.78
2018-11-01T18:54:01.767Z,100152.37
2018-11-01T18:56:35.675Z,100152.12
2018-11-01T18:59:09.877Z,100153.50
2018-11-01T19:01:43.779Z,100158.20
2018-11-01T19:04:17.623Z,100166.37
2018-11-01T19:06:51.888Z,100164.99
2018-11-01T19:09:25.821Z,100170.08
2018-11-01T19:11:59.735Z,100164.36
2018-11-01T19:14:33.690Z,100167.36
2018-11-01T19:17:07.648Z,100162.95
2018-11-01T19:19:41.600Z,100163.34
2018-11-01T19:22:17.566Z,100165.03
2018-11-01T19:24:53.700Z,100167.48
2018-11-01T19:27:27.848Z,100159.81
2018-11-01T19:30:02.920Z,100158.12
2018-11-01T19:32:36.930Z,100160.31
2018-11-01T19:35:12.057Z,100154.39
2018-11-01T19:37:46.069Z,100155.73
2018-11-01T19:40:19.980Z,100156.62
2018-11-01T19:42:54.712Z,100161.08
2018-11-01T19:45:28.759Z,100153.61
2018-11-01T19:48:02.743Z,100168.12
2018-11-01T19:50:36.576Z,100173.00
2018-11-01T19:53:10.477Z,100173.66
2018-11-01T19:55:44.395Z,100185.38
2018-11-01T19:58:18.315Z,100207.95
2018-11-01T20:00:52.321Z,100214.05
2018-11-01T20:03:30.419Z,100226.05
2018-11-01T20:06:04.688Z,100222.46
2018-11-01T20:08:38.983Z,100224.05
2018-11-01T20:11:14.105Z,100231.38
2018-11-01T20:13:48.249Z,100226.59
2018-11-01T20:16:22.430Z,100224.22
2018-11-01T20:18:56.982Z,100243.38
2018-11-01T20:21:30.870Z,100246.89
2018-11-01T20:24:05.108Z,100242.09
2018-11-01T20:26:39.028Z,100245.22
2018-11-01T20:29:12.930Z,100242.08
2018-11-01T20:31:46.844Z,100248.41
2018-11-01T20:34:20.790Z,100256.88
2018-11-01T20:36:54.677Z,100258.63
2018-11-01T20:39:28.562Z,100262.40
2018-11-01T20:42:02.435Z,100251.35
2018-11-01T20:44:36.452Z,100253.05
2018-11-01T20:47:10.346Z,100252.62
2018-11-01T20:49:44.301Z,100270.06
2018-11-01T20:52:18.187Z,100280.33
2018-11-01T20:54:52.103Z,100285.44
2018-11-01T20:57:26.236Z,100282.95
2018-11-01T20:59:59.941Z,100280.20
2018-11-01T21:02:33.907Z,100287.48
2018-11-01T21:05:07.971Z,100286.27
2018-11-01T21:07:41.835Z,100288.33
2018-11-01T21:10:15.783Z,100289.21
2018-11-01T21:12:49.666Z,100290.92
2018-11-01T21:15:23.549Z,100293.55
2018-11-01T21:17:57.464Z,100289.21
2018-11-01T21:20:31.355Z,100289.16
2018-11-01T21:23:05.725Z,100290.05
2018-11-01T21:25:39.651Z,100297.63
2018-11-01T21:28:13.523Z,100308.55
2018-11-01T21:30:47.433Z,100313.83
2018-11-01T21:33:21.294Z,100315.95
2018-11-01T21:35:55.323Z,100320.17
2018-11-01T21:38:29.085Z,100308.48
2018-11-01T21:41:02.940Z,100316.89
2018-11-01T21:43:36.811Z,100315.56
2018-11-01T21:46:10.698Z,100322.64
2018-11-01T21:48:44.695Z,100325.56
2018-11-01T21:51:18.601Z,100324.63
2018-11-01T21:53:52.482Z,100324.73
2018-11-01T21:56:26.418Z,100322.59
2018-11-01T21:59:00.276Z,100323.17
2018-11-01T22:01:34.190Z,100315.64
2018-11-01T22:04:08.035Z,100314.34
2018-11-01T22:06:43.280Z,100317.47
2018-11-01T22:09:18.040Z,100313.20
2018-11-01T22:11:52.082Z,100325.97
2018-11-01T22:14:25.917Z,100332.88
2018-11-01T22:16:59.881Z,100332.23
2018-11-01T22:19:33.782Z,100331.52
2018-11-01T22:22:07.771Z,100325.66
2018-11-01T22:24:41.850Z,100324.71
2018-11-01T22:27:15.820Z,100325.09
2018-11-01T22:29:49.684Z,100322.16
2018-11-01T22:32:23.613Z,100328.09
2018-11-01T22:34:57.827Z,100316.73
2018-11-01T22:37:31.972Z,100327.33
2018-11-01T22:40:06.037Z,100328.28
2018-11-01T22:42:40.031Z,100336.77
2018-11-01T22:45:13.876Z,100330.50
2018-11-01T22:47:47.769Z,100335.64
2018-11-01T22:50:21.657Z,100342.91
2018-11-01T22:52:55.608Z,100344.64
2018-11-01T22:55:29.493Z,100340.22
2018-11-01T22:58:03.485Z,100345.05
2018-11-01T23:00:41.582Z,100348.65
2018-11-01T23:03:15.486Z,100358.58
2018-11-01T23:05:49.350Z,100363.41
2018-11-01T23:08:23.297Z,100365.13
2018-11-01T23:10:57.161Z,100367.44
2018-11-01T23:13:30.998Z,100363.24
2018-11-01T23:16:05.104Z,100359.46
2018-11-01T23:18:39.065Z,100360.84
2018-11-01T23:21:12.998Z,100352.80
2018-11-01T23:23:46.897Z,100361.19
2018-11-01T23:26:20.856Z,100364.52
2018-11-01T23:28:54.690Z,100370.54
2018-11-01T23:31:28.612Z,100365.84
2018-11-01T23:34:02.587Z,100368.82
2018-11-01T23:36:41.581Z,100371.42
2018-11-01T23:39:20.577Z,100371.14
2018-11-01T23:41:59.561Z,100366.78
2018-11-01T23:44:38.564Z,100372.16
2018-11-01T23:47:17.522Z,100379.36
2018-11-01T23:50:13.733Z,100376.76
2018-11-01T23:52:49.546Z,100377.88
2018-11-01T23:55:23.444Z,100370.62
2018-11-01T23:57:57.285Z,100371.83
